Kennedy, Minnesota
Current Conditions -  °F | °C
As of 5:33 AM on Thursday 27 Nov 2014 (Local Time) from KHCO Reporting Station
Clear Clear  
Wind Chill: -29°   Ceiling: Unl
Heat Index: -17°   Visibility: 10mi
Dew Point: -24°   Wind: 5mph
Humidity: 70%   Direction: 170°S
Pressure: 30.5"   Gusts: NA
Location:  48.64°N, 96.91°W
Report Text: KHCO 271133Z AUTO 17004KT 10SM CLR M27/M31 A3050 RMK AO2
Loading
Personal Weather Stations






























Interactive Weather Map New forecast layout! Learn more

10-Day Weather Forecast

Advertisements
Track Severe Weather on mobile